Monarch, Montana
Current Conditions -  °F | °C
As of 4:56 AM on Monday 24 Nov 2014 (Local Time) from KGFA Reporting Station
Scattered Clouds Scattered Clouds  
Wind Chill: 24°   Ceiling: Unl
Heat Index: 33°   Visibility: 10mi
Dew Point: 20°   Wind: 12mph
Humidity: 60%   Direction: 270°W
Pressure: 29.99"   Gusts: NA
Location:  47.1°N, 110.83°W
Report Text: KGFA 241156Z AUTO 27010KT 10SM SCT090 01/M06 A2999 RMK AO2 SLP184 T00061064 10040 20006
Loading
Personal Weather Stations






























Interactive Weather Map New forecast layout! Learn more

10-Day Weather Forecast

Advertisements
Track Severe Weather on mobile